Forside
METAR-TAF:

METAR-TAF

Lufthavne :

South Bend Regional Airport

South Bend, Indiana, USA

Breddekreds: 41-42-32N, længdekreds: 086-19-07W, højde: 244 m

Aktuelle vejr

Denne rapport blev lavet for 38 minutter siden, kl. 06:54 UTC
Vind 9 kt fra sydsydvest
Temperatur 2°C
Fugtighed 80%
Tryk 1018 hPa
Sigt: 16.1 km
skyfri

METAR: KSBN 290654Z AUTO 21009KT 10SM CLR 02/M01 A3006 RMK AO2 SLP184 T00221011

Tid: 02:32 (07:32 UTC)

Vejrudsigter

Denne rapport blev lavet for 2 timer og 12 minutter siden, kl. 05:20 UTC
Foreløbig gælder fra 29 på 06 UTC til 30 på 06 UTC
Vind 10 kt fra sydvest
Sigt: 10 km
skyfri
Fra 29 på 2100 UTC
Vind 8 kt fra vest
Sigt: 10 km
Brudte skyer i en højde af 15000 ft
Fra 30 på 0100 UTC
Vind 11 kt fra nordnordvest
Sigt: 10 km
Overskyet i en højde af 3000 ft

TAF: KSBN 290520Z 2906/3006 22010KT P6SM SKC FM292100 27008KT P6SM BKN150 FM300100 33011KT P6SM OVC030

Vejrobservationer og prognoser fra mere end 4000 lufthavne (METAR og TAF).

De gule og røde prikker repræsenterer de meteorologiske stationer.

Flyt musen over at se navnet på stationen.

Så klik over at se vejr observationer og prognoser.

At skifte det kort: Klik på de grønne knapper med et sort kors for at zoome ind; på den grønne knap med en bindestreg for at zoome ud; eller på de grønne pile for tilstødende kort.


METAR-TAF: